Time;durP1;ratioP1;P1;durP2;ratioP2;P2;SDS_P1;SDS_P2;PMS_P1;PMS_P2;Temp;Humidity;BMP_temperature;BMP_pressure;BME280_temperature;BME280_humidity;BME280_pressure;Samples;Min_cycle;Max_cycle;Signal;HPM_P1;HPM_P2
2023/08/12 00:00:32;;;;;;;;;;;24.30;52.40;;;;;;4998623;28;20554;-75
2023/08/12 00:02:58;;;;;;;;;;;24.20;52.30;;;;;;5012079;28;20285;-76
2023/08/12 00:05:23;;;;;;;;;;;24.20;52.30;;;;;;5012767;28;19948;-74
2023/08/12 00:07:49;;;;;;;;;;;24.20;52.40;;;;;;5013181;28;19920;-76
2023/08/12 00:10:14;;;;;;;;;;;24.20;52.50;;;;;;5010583;28;19949;-76
2023/08/12 00:12:40;;;;;;;;;;;24.10;52.50;;;;;;5012810;28;19916;-77
2023/08/12 00:15:07;;;;;;;;;;;24.20;52.60;;;;;;5011523;28;19971;-76
2023/08/12 00:17:33;;;;;;;;;;;24.20;52.70;;;;;;5012798;28;19964;-76
2023/08/12 00:19:59;;;;;;;;;;;24.20;52.70;;;;;;5011826;28;20396;-68
2023/08/12 00:22:24;;;;;;;;;;;24.30;53.00;;;;;;5009513;28;20005;-68
2023/08/12 00:24:51;;;;;;;;;;;24.30;53.80;;;;;;5010468;28;20028;-68
2023/08/12 00:27:16;;;;;;;;;;;24.30;54.00;;;;;;5012334;28;19910;-68
2023/08/12 00:29:42;;;;;;;;;;;24.40;53.90;;;;;;5010511;28;19921;-68
2023/08/12 00:32:08;;;;;;;;;;;24.40;54.10;;;;;;5012773;28;20369;-68
2023/08/12 00:34:33;;;;;;;;;;;24.50;54.30;;;;;;5012266;28;19921;-68
2023/08/12 00:36:59;;;;;;;;;;;24.40;54.60;;;;;;5011580;28;19917;-68
2023/08/12 00:39:24;;;;;;;;;;;24.50;54.90;;;;;;5012423;28;20455;-68
2023/08/12 00:41:50;;;;;;;;;;;24.50;55.40;;;;;;5011938;28;19925;-68
2023/08/12 00:44:15;;;;;;;;;;;24.50;55.00;;;;;;5011712;28;19935;-68
2023/08/12 00:46:42;;;;;;;;;;;24.50;54.80;;;;;;5009235;28;19925;-68
2023/08/12 00:49:08;;;;;;;;;;;24.60;54.90;;;;;;5009827;28;19914;-69
2023/08/12 00:51:35;;;;;;;;;;;24.60;54.90;;;;;;5013006;28;20273;-68
2023/08/12 00:54:02;;;;;;;;;;;24.70;54.70;;;;;;5010119;28;19920;-70
2023/08/12 00:56:27;;;;;;;;;;;24.70;54.60;;;;;;4994544;28;20373;-69
2023/08/12 00:58:53;;;;;;;;;;;24.70;54.50;;;;;;5008339;28;19918;-68
2023/08/12 01:01:19;;;;;;;;;;;24.70;54.40;;;;;;5011040;28;19972;-69
2023/08/12 01:03:45;;;;;;;;;;;24.80;54.20;;;;;;5012500;28;19910;-68
2023/08/12 01:06:10;;;;;;;;;;;24.80;54.10;;;;;;5012462;28;19925;-68
2023/08/12 01:08:36;;;;;;;;;;;24.90;54.10;;;;;;5012409;28;20353;-68
2023/08/12 01:11:06;;;;;;;;;;;24.90;54.10;;;;;;5012422;28;20388;-68
2023/08/12 01:13:34;;;;;;;;;;;24.90;54.00;;;;;;5010382;28;20262;-68
2023/08/12 01:16:03;;;;;;;;;;;25.00;54.10;;;;;;5012160;28;20298;-69
2023/08/12 01:18:28;;;;;;;;;;;25.00;54.70;;;;;;5010522;28;19920;-69
2023/08/12 01:20:54;;;;;;;;;;;25.00;55.00;;;;;;5009645;28;20374;-68
2023/08/12 01:23:20;;;;;;;;;;;25.00;55.10;;;;;;5011983;28;19925;-68
2023/08/12 01:25:46;;;;;;;;;;;25.00;55.10;;;;;;5001826;28;19918;-69
2023/08/12 01:28:11;;;;;;;;;;;25.00;55.00;;;;;;4992543;28;19961;-68
2023/08/12 01:30:57;;;;;;;;;;;25.00;55.00;;;;;;5004502;28;19976;-68
2023/08/12 01:33:31;;;;;;;;;;;25.10;55.30;;;;;;5011678;28;20350;-68
2023/08/12 01:36:04;;;;;;;;;;;25.10;55.60;;;;;;5011707;28;19933;-68
2023/08/12 01:38:31;;;;;;;;;;;25.00;55.60;;;;;;5011909;28;19914;-68
2023/08/12 01:40:56;;;;;;;;;;;25.00;56.10;;;;;;5011771;28;20381;-68
2023/08/12 01:43:22;;;;;;;;;;;24.90;55.90;;;;;;5011880;28;19910;-68
2023/08/12 01:45:47;;;;;;;;;;;24.80;56.20;;;;;;4997143;28;19917;-69
2023/08/12 01:48:13;;;;;;;;;;;24.70;57.10;;;;;;5010103;28;20013;-69
2023/08/12 01:50:39;;;;;;;;;;;24.60;58.00;;;;;;5011244;28;19918;-69
2023/08/12 01:53:04;;;;;;;;;;;24.50;59.20;;;;;;5011017;28;19909;-69
2023/08/12 01:55:29;;;;;;;;;;;24.40;60.30;;;;;;5011167;28;19921;-70
2023/08/12 01:57:55;;;;;;;;;;;24.30;61.40;;;;;;5011254;28;20369;-72
2023/08/12 02:00:21;;;;;;;;;;;24.20;62.50;;;;;;4993317;28;20361;-70
2023/08/12 02:02:46;;;;;;;;;;;24.20;63.80;;;;;;4998587;28;20377;-71
2023/08/12 02:05:12;;;;;;;;;;;24.20;64.70;;;;;;5007966;28;19924;-71
2023/08/12 02:07:38;;;;;;;;;;;24.20;65.50;;;;;;5011589;28;19913;-73
2023/08/12 02:10:03;;;;;;;;;;;24.10;66.10;;;;;;5011833;28;20136;-73
2023/08/12 02:12:29;;;;;;;;;;;24.10;66.30;;;;;;5011289;28;20377;-69
2023/08/12 02:14:54;;;;;;;;;;;24.00;66.80;;;;;;5007006;28;19921;-69
2023/08/12 02:17:20;;;;;;;;;;;23.90;67.10;;;;;;4992189;28;19913;-68
2023/08/12 02:19:45;;;;;;;;;;;23.90;67.80;;;;;;5010487;28;19913;-68
2023/08/12 02:22:11;;;;;;;;;;;23.80;68.30;;;;;;4994076;28;19967;-67
2023/08/12 02:24:36;;;;;;;;;;;23.80;68.80;;;;;;5011262;28;19920;-68
2023/08/12 02:27:01;;;;;;;;;;;23.80;69.10;;;;;;5011418;28;19918;-68
2023/08/12 02:29:27;;;;;;;;;;;23.80;69.30;;;;;;5011646;28;19917;-67
2023/08/12 02:31:52;;;;;;;;;;;23.90;69.60;;;;;;5012735;28;19935;-67
2023/08/12 02:34:18;;;;;;;;;;;23.80;69.70;;;;;;5015135;28;19921;-67
2023/08/12 02:36:43;;;;;;;;;;;23.80;69.90;;;;;;5015716;28;19913;-68
2023/08/12 02:39:09;;;;;;;;;;;23.80;70.00;;;;;;5015267;28;19964;-69
2023/08/12 02:41:34;;;;;;;;;;;23.80;70.20;;;;;;5015687;28;19963;-69
2023/08/12 02:43:59;;;;;;;;;;;23.80;70.40;;;;;;5015074;28;19917;-69
2023/08/12 02:46:25;;;;;;;;;;;23.80;70.30;;;;;;5014667;28;19926;-68
2023/08/12 02:48:50;;;;;;;;;;;23.80;70.40;;;;;;5012603;28;19910;-69
2023/08/12 02:51:16;;;;;;;;;;;23.80;70.50;;;;;;5004599;28;19922;-69
2023/08/12 02:53:41;;;;;;;;;;;23.80;70.70;;;;;;5014859;28;19909;-70
2023/08/12 02:56:07;;;;;;;;;;;23.80;70.80;;;;;;5014876;28;19928;-69
2023/08/12 02:58:34;;;;;;;;;;;23.80;70.90;;;;;;5014102;28;19921;-68
2023/08/12 03:00:59;;;;;;;;;;;23.80;71.00;;;;;;5015106;28;19943;-69
2023/08/12 03:03:25;;;;;;;;;;;23.80;71.10;;;;;;5014599;28;19960;-68
2023/08/12 03:05:50;;;;;;;;;;;23.80;71.00;;;;;;5014356;28;19921;-68
2023/08/12 03:08:16;;;;;;;;;;;23.70;71.10;;;;;;5014978;28;19916;-68
2023/08/12 03:10:42;;;;;;;;;;;23.70;71.30;;;;;;5014868;28;19948;-68
2023/08/12 03:13:07;;;;;;;;;;;23.70;71.30;;;;;;5014257;28;19914;-68
2023/08/12 03:15:33;;;;;;;;;;;23.70;71.40;;;;;;5013731;28;19948;-68
2023/08/12 03:17:58;;;;;;;;;;;23.70;71.40;;;;;;5014411;28;19909;-69
2023/08/12 03:20:23;;;;;;;;;;;23.80;71.30;;;;;;5014528;28;19917;-72
2023/08/12 03:22:49;;;;;;;;;;;23.70;71.40;;;;;;5014581;28;19909;-72
2023/08/12 03:25:15;;;;;;;;;;;23.70;71.40;;;;;;5013235;28;19964;-72
2023/08/12 03:27:41;;;;;;;;;;;23.70;71.40;;;;;;5013960;28;19967;-72
2023/08/12 03:30:06;;;;;;;;;;;23.70;71.40;;;;;;5009460;28;20284;-73
2023/08/12 03:32:32;;;;;;;;;;;23.70;71.40;;;;;;4996941;28;19909;-73
2023/08/12 03:34:58;;;;;;;;;;;23.70;71.40;;;;;;5013976;28;19928;-73
2023/08/12 03:37:24;;;;;;;;;;;23.70;71.50;;;;;;4981324;28;20362;-73
2023/08/12 03:39:50;;;;;;;;;;;23.70;71.60;;;;;;5000601;28;19916;-72
2023/08/12 03:42:16;;;;;;;;;;;23.70;71.60;;;;;;5014149;28;19910;-72
2023/08/12 03:44:42;;;;;;;;;;;23.70;71.70;;;;;;5012615;28;19916;-72
2023/08/12 03:47:08;;;;;;;;;;;23.70;71.80;;;;;;5013959;28;20417;-73
2023/08/12 03:49:33;;;;;;;;;;;23.70;71.90;;;;;;5013385;28;19913;-73
2023/08/12 03:51:58;;;;;;;;;;;23.70;71.90;;;;;;5011133;28;20004;-73
2023/08/12 03:54:24;;;;;;;;;;;23.70;72.00;;;;;;5013178;28;19918;-73
2023/08/12 03:56:49;;;;;;;;;;;23.70;72.00;;;;;;5012269;28;19921;-74
2023/08/12 03:59:15;;;;;;;;;;;23.80;72.00;;;;;;5013646;28;20298;-73
2023/08/12 04:01:40;;;;;;;;;;;23.80;72.10;;;;;;5013712;28;19944;-73
2023/08/12 04:04:06;;;;;;;;;;;23.70;72.00;;;;;;5004163;28;19920;-74
2023/08/12 04:06:31;;;;;;;;;;;23.80;72.00;;;;;;5013241;28;19917;-74
2023/08/12 04:08:56;;;;;;;;;;;23.80;72.00;;;;;;5014007;28;19967;-73
2023/08/12 04:11:22;;;;;;;;;;;23.80;72.00;;;;;;4995946;28;19976;-74
2023/08/12 04:13:47;;;;;;;;;;;23.80;72.10;;;;;;5013667;28;19917;-73
2023/08/12 04:16:13;;;;;;;;;;;23.80;72.10;;;;;;5013061;28;20380;-74
2023/08/12 04:18:38;;;;;;;;;;;23.80;72.00;;;;;;5007943;28;20504;-74
2023/08/12 04:21:04;;;;;;;;;;;23.80;72.10;;;;;;5013543;28;19972;-74
2023/08/12 04:23:29;;;;;;;;;;;23.80;72.10;;;;;;5013371;28;19914;-74
2023/08/12 04:25:55;;;;;;;;;;;23.80;72.10;;;;;;5012642;28;19913;-73
2023/08/12 04:28:20;;;;;;;;;;;23.80;72.10;;;;;;5013270;28;20153;-73
2023/08/12 04:30:46;;;;;;;;;;;23.80;72.20;;;;;;4995736;28;19964;-74
2023/08/12 04:33:14;;;;;;;;;;;23.80;72.20;;;;;;5013190;28;19920;-74
2023/08/12 04:35:40;;;;;;;;;;;23.80;72.20;;;;;;5012880;28;19921;-74
2023/08/12 04:38:06;;;;;;;;;;;23.80;72.20;;;;;;5011314;28;19914;-74
2023/08/12 04:40:31;;;;;;;;;;;23.80;72.30;;;;;;5013209;28;19914;-73
2023/08/12 04:42:58;;;;;;;;;;;23.80;72.30;;;;;;5011905;28;20004;-74
2023/08/12 04:45:24;;;;;;;;;;;23.80;72.30;;;;;;5012639;28;20004;-74
2023/08/12 04:47:49;;;;;;;;;;;23.90;72.30;;;;;;5010091;28;19997;-74
2023/08/12 04:50:15;;;;;;;;;;;23.90;72.20;;;;;;5012076;28;19922;-74
2023/08/12 04:52:40;;;;;;;;;;;23.90;72.20;;;;;;5011572;28;19949;-74
2023/08/12 04:55:06;;;;;;;;;;;23.90;72.30;;;;;;5012285;28;19987;-74
2023/08/12 04:57:31;;;;;;;;;;;23.90;72.30;;;;;;5011916;28;19917;-73
2023/08/12 04:59:56;;;;;;;;;;;24.00;72.30;;;;;;5010682;28;19926;-73
2023/08/12 05:02:22;;;;;;;;;;;24.00;72.20;;;;;;4995689;28;19914;-73
2023/08/12 05:04:48;;;;;;;;;;;23.90;72.20;;;;;;4997994;28;19964;-74
2023/08/12 05:07:14;;;;;;;;;;;23.90;72.20;;;;;;5009503;28;20392;-73
2023/08/12 05:09:39;;;;;;;;;;;24.00;72.30;;;;;;5012416;28;19917;-74
2023/08/12 05:12:05;;;;;;;;;;;24.00;72.20;;;;;;5007655;28;19961;-74
2023/08/12 05:14:30;;;;;;;;;;;24.00;72.20;;;;;;4978189;28;19920;-74
2023/08/12 05:16:56;;;;;;;;;;;24.10;72.30;;;;;;4994574;28;19913;-74
2023/08/12 05:19:21;;;;;;;;;;;24.10;72.30;;;;;;5011873;28;19910;-74
2023/08/12 05:21:47;;;;;;;;;;;24.10;72.30;;;;;;5012832;28;19968;-74
2023/08/12 05:24:12;;;;;;;;;;;24.10;72.40;;;;;;5012084;28;19913;-73
2023/08/12 05:26:38;;;;;;;;;;;24.10;72.30;;;;;;5012530;28;19921;-74
2023/08/12 05:29:03;;;;;;;;;;;24.20;72.20;;;;;;5010419;28;20416;-74
2023/08/12 05:31:29;;;;;;;;;;;24.20;72.20;;;;;;5010779;28;20277;-75
2023/08/12 05:33:54;;;;;;;;;;;24.20;72.20;;;;;;5010744;28;20008;-75
2023/08/12 05:36:20;;;;;;;;;;;24.20;72.40;;;;;;4992609;28;20373;-75
2023/08/12 05:38:45;;;;;;;;;;;24.20;72.30;;;;;;5010263;28;19914;-75
2023/08/12 05:41:11;;;;;;;;;;;24.30;72.30;;;;;;4993136;28;19924;-74
2023/08/12 05:43:36;;;;;;;;;;;24.30;72.30;;;;;;5012061;28;19925;-74
2023/08/12 05:46:02;;;;;;;;;;;24.40;72.40;;;;;;5010444;28;19921;-74
2023/08/12 05:48:28;;;;;;;;;;;24.40;72.30;;;;;;5010186;28;20365;-74
2023/08/12 05:50:53;;;;;;;;;;;24.40;72.30;;;;;;5010815;28;19953;-75
2023/08/12 05:53:18;;;;;;;;;;;24.50;72.40;;;;;;5010394;28;20391;-74
2023/08/12 05:55:47;;;;;;;;;;;24.50;72.40;;;;;;5010433;28;20361;-74
2023/08/12 05:58:12;;;;;;;;;;;24.60;72.50;;;;;;4992924;28;20288;-74
2023/08/12 06:00:38;;;;;;;;;;;24.60;72.50;;;;;;4989369;28;19943;-75
2023/08/12 06:03:03;;;;;;;;;;;24.70;72.40;;;;;;5010409;28;19916;-75
2023/08/12 06:05:29;;;;;;;;;;;24.70;72.20;;;;;;5010032;28;20389;-76
2023/08/12 06:07:54;;;;;;;;;;;24.70;72.20;;;;;;5009798;28;19915;-75
2023/08/12 06:10:20;;;;;;;;;;;24.80;72.40;;;;;;5010107;28;20383;-74
2023/08/12 06:12:45;;;;;;;;;;;24.80;72.60;;;;;;5006474;28;19913;-75
2023/08/12 06:15:11;;;;;;;;;;;25.00;72.80;;;;;;4992270;28;19921;-75
2023/08/12 06:17:36;;;;;;;;;;;25.10;72.90;;;;;;5010005;28;20443;-76
2023/08/12 06:20:02;;;;;;;;;;;25.30;73.30;;;;;;5010020;28;20428;-74
2023/08/12 06:22:28;;;;;;;;;;;25.60;73.40;;;;;;4992487;28;19994;-74
2023/08/12 06:24:53;;;;;;;;;;;25.80;73.20;;;;;;5009926;28;19921;-74
2023/08/12 06:27:20;;;;;;;;;;;25.90;73.00;;;;;;5009945;28;20393;-75
2023/08/12 06:29:46;;;;;;;;;;;26.00;72.70;;;;;;5009875;28;19950;-75
2023/08/12 06:32:14;;;;;;;;;;;26.10;72.50;;;;;;5024566;28;19913;-76
2023/08/12 06:34:40;;;;;;;;;;;26.10;72.60;;;;;;5009667;28;19917;-76
2023/08/12 06:37:05;;;;;;;;;;;26.20;72.60;;;;;;4989316;28;19924;-75
2023/08/12 06:39:31;;;;;;;;;;;26.20;72.40;;;;;;4991312;28;19913;-78
2023/08/12 06:41:56;;;;;;;;;;;26.20;72.60;;;;;;5009921;28;20016;-77
2023/08/12 06:44:22;;;;;;;;;;;26.40;72.80;;;;;;5008677;28;20362;-79
2023/08/12 06:46:47;;;;;;;;;;;26.50;72.80;;;;;;5009812;28;19913;-76
2023/08/12 06:49:13;;;;;;;;;;;26.70;73.00;;;;;;5009789;28;19955;-74
2023/08/12 06:51:38;;;;;;;;;;;26.90;73.00;;;;;;4993634;28;19914;-74
2023/08/12 06:54:04;;;;;;;;;;;27.20;73.10;;;;;;4992358;28;20369;-75
2023/08/12 06:56:30;;;;;;;;;;;27.50;73.40;;;;;;4991950;28;20008;-75
2023/08/12 06:58:55;;;;;;;;;;;27.90;73.60;;;;;;5010828;28;20000;-75
2023/08/12 07:01:20;;;;;;;;;;;28.20;73.20;;;;;;4992929;28;20337;-76
2023/08/12 07:03:48;;;;;;;;;;;28.50;72.70;;;;;;5010868;28;20230;-76
2023/08/12 07:06:13;;;;;;;;;;;28.60;72.30;;;;;;5009878;28;20012;-76
2023/08/12 07:08:39;;;;;;;;;;;28.70;71.80;;;;;;4993612;28;19967;-75
2023/08/12 07:11:04;;;;;;;;;;;28.70;70.80;;;;;;4992842;28;19920;-75
2023/08/12 07:13:30;;;;;;;;;;;28.60;70.80;;;;;;5010534;28;19985;-75
2023/08/12 07:15:55;;;;;;;;;;;28.50;71.00;;;;;;5008422;28;20057;-76
2023/08/12 07:18:22;;;;;;;;;;;28.50;71.20;;;;;;5008504;28;20011;-76
2023/08/12 07:20:48;;;;;;;;;;;28.80;72.20;;;;;;4980385;28;20308;-76
2023/08/12 07:23:13;;;;;;;;;;;29.10;71.60;;;;;;4996848;28;19918;-76
2023/08/12 07:25:39;;;;;;;;;;;29.10;70.80;;;;;;5013860;28;19933;-76
2023/08/12 07:28:05;;;;;;;;;;;29.00;70.30;;;;;;4996606;28;19917;-77
2023/08/12 07:30:30;;;;;;;;;;;28.80;69.90;;;;;;5013418;28;19917;-77
2023/08/12 07:32:56;;;;;;;;;;;28.60;69.80;;;;;;4996896;28;20412;-77
2023/08/12 07:35:21;;;;;;;;;;;28.40;70.00;;;;;;5013945;28;19943;-78
2023/08/12 07:37:47;;;;;;;;;;;28.30;70.00;;;;;;5008528;28;19929;-78
2023/08/12 07:40:12;;;;;;;;;;;28.20;70.40;;;;;;5004380;28;20016;-78
2023/08/12 07:42:38;;;;;;;;;;;28.10;70.60;;;;;;5014410;28;20387;-79
2023/08/12 07:45:04;;;;;;;;;;;28.10;70.80;;;;;;5013689;28;19949;-78
2023/08/12 07:47:30;;;;;;;;;;;28.00;70.90;;;;;;4977163;28;19918;-76
2023/08/12 07:49:56;;;;;;;;;;;27.90;70.60;;;;;;5001109;28;19963;-76
2023/08/12 07:52:21;;;;;;;;;;;27.90;70.90;;;;;;5013810;28;19918;-76
2023/08/12 07:54:46;;;;;;;;;;;27.90;71.10;;;;;;5013798;28;20304;-75
2023/08/12 07:57:12;;;;;;;;;;;28.00;71.40;;;;;;5013941;28;19968;-75
2023/08/12 07:59:37;;;;;;;;;;;28.10;71.40;;;;;;4996554;28;19921;-82
2023/08/12 08:02:03;;;;;;;;;;;28.30;71.60;;;;;;5016442;28;19961;-82
2023/08/12 08:04:28;;;;;;;;;;;28.40;71.60;;;;;;5015378;28;19955;-81
2023/08/12 08:06:54;;;;;;;;;;;28.60;70.80;;;;;;5015055;28;20432;-82
2023/08/12 08:09:19;;;;;;;;;;;28.70;70.70;;;;;;5015824;28;20452;-80
2023/08/12 08:11:45;;;;;;;;;;;28.80;70.70;;;;;;5014344;28;19916;-80
2023/08/12 08:14:10;;;;;;;;;;;28.80;70.00;;;;;;4997406;28;19913;-79
2023/08/12 08:16:36;;;;;;;;;;;28.90;70.20;;;;;;5015865;28;20341;-79
2023/08/12 08:19:02;;;;;;;;;;;28.80;69.70;;;;;;4999081;28;19913;-80
2023/08/12 08:21:27;;;;;;;;;;;28.90;69.60;;;;;;5016545;28;20289;-79
2023/08/12 08:23:53;;;;;;;;;;;28.80;69.60;;;;;;5016843;28;19914;-80
2023/08/12 08:26:18;;;;;;;;;;;28.80;70.10;;;;;;5014542;28;19914;-78
2023/08/12 08:28:44;;;;;;;;;;;28.70;70.40;;;;;;5014150;28;19923;-78
2023/08/12 08:31:09;;;;;;;;;;;28.70;70.20;;;;;;5014064;28;19913;-78
2023/08/12 08:33:35;;;;;;;;;;;28.60;69.70;;;;;;4996997;28;19971;-77
2023/08/12 08:36:00;;;;;;;;;;;28.30;68.50;;;;;;5014169;28;19960;-76
2023/08/12 08:38:26;;;;;;;;;;;28.10;68.70;;;;;;4996065;28;20367;-76
2023/08/12 08:40:51;;;;;;;;;;;27.90;69.40;;;;;;4990371;28;20354;-77
2023/08/12 08:43:20;;;;;;;;;;;27.80;70.40;;;;;;5014120;28;20349;-76
2023/08/12 08:45:46;;;;;;;;;;;27.80;70.60;;;;;;5008902;28;19924;-78
2023/08/12 08:48:11;;;;;;;;;;;27.70;70.40;;;;;;5012454;28;19921;-78
2023/08/12 08:50:37;;;;;;;;;;;27.70;70.70;;;;;;5013780;28;20416;-78
2023/08/12 08:53:04;;;;;;;;;;;27.70;70.80;;;;;;5011918;28;19963;-78
2023/08/12 08:55:30;;;;;;;;;;;27.60;70.30;;;;;;4996610;28;19913;-81
2023/08/12 08:57:56;;;;;;;;;;;27.50;70.30;;;;;;4997894;28;19928;-81
2023/08/12 09:00:22;;;;;;;;;;;27.40;70.10;;;;;;5017024;28;19917;-81
2023/08/12 09:02:49;;;;;;;;;;;27.30;70.10;;;;;;5004749;28;19929;-79
2023/08/12 09:05:15;;;;;;;;;;;27.20;70.20;;;;;;4992417;28;20384;-77
2023/08/12 09:07:41;;;;;;;;;;;27.10;71.00;;;;;;4991580;28;19917;-75
2023/08/12 09:10:07;;;;;;;;;;;27.00;71.20;;;;;;4994708;28;20219;-75
2023/08/12 09:12:33;;;;;;;;;;;26.90;71.40;;;;;;5012598;28;20004;-75
2023/08/12 09:14:58;;;;;;;;;;;26.80;71.50;;;;;;5011976;28;20419;-76
2023/08/12 09:17:24;;;;;;;;;;;26.80;71.60;;;;;;5007696;28;20397;-75
2023/08/12 09:19:49;;;;;;;;;;;26.90;72.20;;;;;;5011481;28;19936;-74
2023/08/12 09:22:15;;;;;;;;;;;27.00;72.50;;;;;;5011417;28;19967;-75
2023/08/12 09:24:42;;;;;;;;;;;27.10;72.60;;;;;;4992883;28;20365;-75
2023/08/12 09:27:07;;;;;;;;;;;27.20;72.70;;;;;;5011831;28;19945;-76
2023/08/12 09:29:33;;;;;;;;;;;27.40;73.30;;;;;;5011402;28;19918;-75
2023/08/12 09:32:18;;;;;;;;;;;27.70;73.70;;;;;;5002974;28;20281;-75
2023/08/12 09:34:47;;;;;;;;;;;28.10;74.10;;;;;;5002223;28;19913;-76
2023/08/12 09:37:13;;;;;;;;;;;28.50;74.00;;;;;;5000992;28;20032;-76
2023/08/12 09:39:38;;;;;;;;;;;28.90;73.80;;;;;;4986367;28;20378;-77
2023/08/12 09:42:04;;;;;;;;;;;29.40;73.60;;;;;;4988309;28;19976;-79
2023/08/12 09:44:29;;;;;;;;;;;29.80;72.80;;;;;;5002529;28;20377;-77
2023/08/12 09:46:58;;;;;;;;;;;30.00;72.10;;;;;;5008230;28;19918;-78
2023/08/12 09:49:24;;;;;;;;;;;30.30;72.20;;;;;;5010354;28;19913;-78
2023/08/12 09:51:50;;;;;;;;;;;30.50;71.50;;;;;;5012504;28;19956;-80
2023/08/12 09:54:17;;;;;;;;;;;30.80;71.80;;;;;;5011175;28;19936;-81
2023/08/12 09:56:42;;;;;;;;;;;31.30;72.00;;;;;;4986208;28;19918;-83
2023/08/12 09:59:08;;;;;;;;;;;31.70;71.10;;;;;;4984075;28;19924;-81
2023/08/12 10:01:35;;;;;;;;;;;31.90;70.30;;;;;;5009061;28;19914;-82
2023/08/12 10:04:01;;;;;;;;;;;32.00;70.10;;;;;;5013836;28;19957;-81
2023/08/12 10:06:27;;;;;;;;;;;32.00;69.30;;;;;;5012574;28;19910;-81
2023/08/12 10:08:53;;;;;;;;;;;32.10;69.60;;;;;;5014123;28;20008;-82
2023/08/12 10:11:18;;;;;;;;;;;32.00;68.50;;;;;;4991005;28;20439;-81
2023/08/12 10:13:44;;;;;;;;;;;32.00;68.60;;;;;;5006965;28;19972;-81
2023/08/12 10:16:10;;;;;;;;;;;32.10;68.30;;;;;;5010762;28;19918;-80
2023/08/12 10:18:36;;;;;;;;;;;32.10;67.80;;;;;;5007061;28;20384;-80
2023/08/12 10:21:02;;;;;;;;;;;32.10;67.30;;;;;;5011245;28;19913;-79
2023/08/12 10:23:27;;;;;;;;;;;32.20;67.90;;;;;;4996115;28;20029;-79
2023/08/12 10:25:54;;;;;;;;;;;32.50;68.10;;;;;;4991431;28;19944;-78
2023/08/12 10:28:20;;;;;;;;;;;32.60;68.10;;;;;;5014320;28;19924;-74
2023/08/12 10:30:45;;;;;;;;;;;32.70;67.60;;;;;;5010558;28;20289;-73
2023/08/12 10:33:13;;;;;;;;;;;32.80;66.60;;;;;;5011585;28;19918;-73
2023/08/12 10:35:43;;;;;;;;;;;32.70;62.90;;;;;;4993460;28;20358;-73
2023/08/12 10:38:08;;;;;;;;;;;32.50;63.30;;;;;;5012017;28;19918;-73
2023/08/12 10:40:34;;;;;;;;;;;32.40;64.60;;;;;;4993750;28;19916;-73
2023/08/12 10:42:59;;;;;;;;;;;32.30;62.50;;;;;;5008823;28;19918;-74
2023/08/12 10:45:40;;;;;;;;;;;32.10;62.50;;;;;;5008989;28;19913;-73
2023/08/12 10:48:11;;;;;;;;;;;31.90;62.90;;;;;;4988338;28;19917;-73
2023/08/12 10:50:43;;;;;;;;;;;31.70;62.10;;;;;;5011282;28;19956;-73
2023/08/12 10:53:22;;;;;;;;;;;31.60;63.10;;;;;;4994572;28;19924;-72
2023/08/12 10:55:54;;;;;;;;;;;31.50;63.90;;;;;;4997797;28;19917;-72
2023/08/12 10:58:28;;;;;;;;;;;31.50;62.80;;;;;;5015931;28;20391;-73
2023/08/12 11:00:55;;;;;;;;;;;31.20;61.10;;;;;;4997612;28;20476;-73
2023/08/12 11:03:20;;;;;;;;;;;30.80;62.00;;;;;;5015960;28;19917;-73
2023/08/12 11:05:46;;;;;;;;;;;30.60;62.40;;;;;;4997517;28;19920;-73
2023/08/12 11:08:13;;;;;;;;;;;30.50;63.10;;;;;;5015467;28;19921;-72
2023/08/12 11:10:38;;;;;;;;;;;30.60;63.90;;;;;;5014964;28;20416;-72
2023/08/12 11:13:04;;;;;;;;;;;31.00;64.20;;;;;;5015603;28;19960;-73
2023/08/12 11:15:32;;;;;;;;;;;31.30;62.00;;;;;;5015657;28;20285;-73
2023/08/12 11:17:58;;;;;;;;;;;31.50;61.70;;;;;;5015711;28;19967;-74
2023/08/12 11:20:24;;;;;;;;;;;31.80;61.00;;;;;;5015388;28;20007;-75
2023/08/12 11:22:50;;;;;;;;;;;31.90;61.00;;;;;;4997675;28;20377;-75
2023/08/12 11:25:15;;;;;;;;;;;32.10;61.20;;;;;;5014781;28;20047;-75
2023/08/12 11:27:47;;;;;;;;;;;32.40;59.20;;;;;;5015118;28;19920;-75
2023/08/12 11:30:15;;;;;;;;;;;32.50;59.00;;;;;;5015930;28;19920;-74
2023/08/12 11:32:44;;;;;;;;;;;32.70;58.50;;;;;;5015274;28;19921;-74
2023/08/12 11:35:11;;;;;;;;;;;32.80;57.60;;;;;;5015129;28;19918;-74
2023/08/12 11:37:37;;;;;;;;;;;32.90;56.60;;;;;;5015096;28;19914;-74
2023/08/12 11:40:03;;;;;;;;;;;32.80;55.50;;;;;;4997170;28;19963;-74
2023/08/12 11:42:28;;;;;;;;;;;32.70;55.40;;;;;;5014980;28;19937;-74
2023/08/12 11:44:54;;;;;;;;;;;32.60;56.40;;;;;;4996878;28;20381;-74
2023/08/12 11:47:19;;;;;;;;;;;32.40;55.20;;;;;;5014539;28;19913;-73
2023/08/12 11:49:45;;;;;;;;;;;32.20;54.50;;;;;;5015058;28;19967;-74
2023/08/12 11:52:11;;;;;;;;;;;32.10;55.30;;;;;;5014943;28;19917;-73
2023/08/12 11:54:37;;;;;;;;;;;32.00;54.20;;;;;;5014345;28;19914;-73
2023/08/12 11:57:03;;;;;;;;;;;32.10;55.60;;;;;;5014221;28;19924;-73
2023/08/12 11:59:28;;;;;;;;;;;32.30;55.20;;;;;;5014000;28;19917;-73
2023/08/12 12:01:54;;;;;;;;;;;32.60;55.10;;;;;;5014097;28;20012;-73
2023/08/12 12:04:20;;;;;;;;;;;33.00;55.20;;;;;;4995738;28;19909;-74
2023/08/12 12:06:47;;;;;;;;;;;33.20;54.40;;;;;;5013758;28;20285;-73
2023/08/12 12:09:13;;;;;;;;;;;33.30;53.20;;;;;;5014159;28;19910;-72
2023/08/12 12:11:39;;;;;;;;;;;33.30;52.40;;;;;;5013855;28;19910;-73
2023/08/12 12:14:05;;;;;;;;;;;33.20;52.30;;;;;;5014003;28;20297;-72
2023/08/12 12:16:44;;;;;;;;;;;33.10;51.60;;;;;;4996180;28;19926;-72
2023/08/12 12:19:17;;;;;;;;;;;33.00;53.00;;;;;;5013856;28;19925;-72
2023/08/12 12:21:45;;;;;;;;;;;33.30;52.70;;;;;;5013932;28;19933;-73
2023/08/12 12:24:10;;;;;;;;;;;33.60;51.90;;;;;;5013734;28;20361;-72
2023/08/12 12:26:37;;;;;;;;;;;34.00;51.60;;;;;;5013635;28;19924;-72
2023/08/12 12:29:03;;;;;;;;;;;34.50;50.70;;;;;;5013388;28;19918;-72
2023/08/12 12:31:29;;;;;;;;;;;34.70;48.70;;;;;;5013505;28;19917;-72
2023/08/12 12:33:54;;;;;;;;;;;34.90;48.00;;;;;;5013391;28;19917;-72
2023/08/12 12:36:20;;;;;;;;;;;35.20;47.60;;;;;;5013737;28;20011;-72
2023/08/12 12:38:45;;;;;;;;;;;35.30;45.70;;;;;;5014204;28;19909;-72
2023/08/12 12:41:11;;;;;;;;;;;35.20;45.20;;;;;;5023495;28;19904;-81
2023/08/12 12:43:36;;;;;;;;;;;35.00;45.00;;;;;;5024560;28;20391;-81
2023/08/12 12:46:02;;;;;;;;;;;34.80;46.40;;;;;;5025196;28;19920;-76
2023/08/12 12:48:27;;;;;;;;;;;34.70;45.60;;;;;;5022017;28;19914;-80
2023/08/12 12:50:53;;;;;;;;;;;34.40;44.10;;;;;;5021303;28;19956;-80
2023/08/12 12:53:18;;;;;;;;;;;34.10;45.20;;;;;;5018106;28;19960;-78
2023/08/12 12:55:44;;;;;;;;;;;33.90;46.10;;;;;;5000604;28;19921;-79
2023/08/12 12:58:09;;;;;;;;;;;33.80;46.40;;;;;;5018375;28;19909;-80
2023/08/12 13:00:35;;;;;;;;;;;33.60;46.70;;;;;;5019453;28;19922;-80
2023/08/12 13:03:00;;;;;;;;;;;33.40;47.30;;;;;;5000870;28;19910;-77
2023/08/12 13:05:26;;;;;;;;;;;33.40;47.80;;;;;;5018480;28;20365;-81
2023/08/12 13:07:51;;;;;;;;;;;33.30;48.10;;;;;;5019195;28;20357;-80
2023/08/12 13:10:17;;;;;;;;;;;33.40;48.00;;;;;;5019058;28;19987;-80
2023/08/12 13:12:42;;;;;;;;;;;33.30;47.40;;;;;;5017756;28;19909;-79
2023/08/12 13:15:08;;;;;;;;;;;33.30;48.00;;;;;;5016943;28;19921;-80
2023/08/12 13:17:33;;;;;;;;;;;33.30;47.70;;;;;;5018269;28;20480;-80
2023/08/12 13:19:59;;;;;;;;;;;33.20;48.20;;;;;;5017467;28;19917;-81
2023/08/12 13:22:24;;;;;;;;;;;33.20;48.50;;;;;;5018437;28;19956;-79
2023/08/12 13:24:50;;;;;;;;;;;33.00;48.20;;;;;;5020112;28;20298;-80
2023/08/12 13:27:17;;;;;;;;;;;32.80;48.30;;;;;;5019289;28;20016;-80
2023/08/12 13:29:42;;;;;;;;;;;32.50;48.40;;;;;;5018552;28;20016;-78
2023/08/12 13:32:08;;;;;;;;;;;32.30;49.20;;;;;;4999530;28;19941;-78
2023/08/12 13:34:33;;;;;;;;;;;31.80;53.30;;;;;;5012889;28;19922;-81
2023/08/12 13:36:59;;;;;;;;;;;31.20;56.70;;;;;;4995246;28;19916;-78
2023/08/12 13:39:24;;;;;;;;;;;30.70;58.90;;;;;;5012488;28;19917;-77
2023/08/12 13:41:50;;;;;;;;;;;30.30;60.20;;;;;;5012867;28;20266;-75
2023/08/12 13:44:15;;;;;;;;;;;29.90;61.80;;;;;;5018095;28;20007;-76
2023/08/12 13:46:41;;;;;;;;;;;29.70;64.00;;;;;;5012109;28;19917;-77
2023/08/12 13:49:06;;;;;;;;;;;29.70;64.80;;;;;;5017545;28;20004;-73
2023/08/12 13:51:31;;;;;;;;;;;29.70;66.20;;;;;;5028025;28;19924;-82
2023/08/12 13:53:57;;;;;;;;;;;29.80;65.70;;;;;;5000349;28;19936;-83
2023/08/12 13:56:22;;;;;;;;;;;29.80;66.30;;;;;;5019238;28;19921;-83
2023/08/12 13:58:48;;;;;;;;;;;29.70;66.40;;;;;;4995673;28;19920;-82
2023/08/12 14:01:13;;;;;;;;;;;29.80;66.70;;;;;;5016306;28;20350;-80
2023/08/12 14:03:39;;;;;;;;;;;29.80;66.20;;;;;;5013779;28;20297;-80
2023/08/12 14:06:04;;;;;;;;;;;29.80;67.30;;;;;;5014000;28;19921;-81
2023/08/12 14:08:30;;;;;;;;;;;29.70;67.10;;;;;;5016196;28;19972;-82